Airfield :
LOGIN :

Register | Disclaimer

   EN    FR    IT 

 










Legend :    VFR   Marginal VFR   IFR   Intensive IFR   Very Intensive IFR
Visi :
Ceiling :
>= 8 km
>= 3000ft
5 to 8 km
1000 to 3000 ft
1500m to 5 km
500 to 1000 ft
800 to 1500m
200 to 500 ft
< 800m
< 200 ft
Symbols :   Thunderstorms  Fog  Heavy snow  Heavy precipitations  Wind > 20 kt
SIGMETs :     Misc.  Thunderstorms  Icing  Turbulence  Mountain Waves  Volcanic Ashes







- Airport Elevation : 267 ft


EGDR - Culdrose Navy

CURRENT METAR :
  • 161350Z 32009KT 9999 FEW006 SCT012 OVC020 17/15 Q1024 GRN TEMPO 2000 -DZ SCT003 RMK GRN TEMPO YLO2

EXPIRED METARs :
  • 161324Z 33010KT 9999 FEW006 SCT012 BKN020 18/15 Q1024 GRN TEMPO 2000 -DZ SCT003 RMK GRN TEMPO YLO2
  • 161250Z 30007KT 9999 FEW006 SCT012 BKN020 18/15 Q1024 TEMPO 2000 -DZ SCT003 RMK GRN TEMPO YLO2
  • 161219Z 32007KT 9999 FEW006 SCT010 BKN020 17/15 Q1024 TEMPO 2000 -DZ SCT003 RMK GRN TEMPO YLO2
  • 161150Z 31008KT 9999 -DZ FEW006 SCT010 BKN020 17/15 Q1024 TEMPO 2000 -DZ SCT003 RMK GRN TEMPO YLO2
  • 161118Z 31008KT 8000 -DZ FEW006 SCT008 BKN012 17/14 Q1024 GRN TEMPO 2000 -DZ SCT003 RMK GRN TEMPO YLO2

TAF TAF EGDR
Valid from the 16 at 12:00 until the 16 at 21:00 UTC


161009Z 1612/1621 27010KT 7000 -DZ FEW004 BKN010 OVC020
BECMG 1613/1615 30008KT 3000 -DZ FEW004 SCT006 OVC010
TEMPO 1612/1621 1800 DZ FEW001 SCT004 OVC010
TEMPO 1617/1621 0600 DZ BCFG SCT001 OVC004
No reported NOTAMs for that airfield.



MET'MAP, your aeronautical weather chart ! - Copyright ORBIFLY December 2007 - Disclaimer

ORBIFLY MET'MAP TEAM :

Programming & Development : Alexandra Zaïnal
Concept & Development : Baudouin d'Aumeries
Co-Development & Prog : Marc-Olivier Méhu
Technical & hardware support : Manuel Goepfert

Contact : metmap@orbifly.com




SOURCES & CREDITS :

   NOAA